Time;durP1;ratioP1;P1;durP2;ratioP2;P2;SDS_P1;SDS_P2;PMS_P1;PMS_P2;Temp;Humidity;BMP_temperature;BMP_pressure;BME280_temperature;BME280_humidity;BME280_pressure;Samples;Min_cycle;Max_cycle;Signal;HPM_P1;HPM_P2
2022/01/08 00:01:11;;;;;;;4.17;2.10;;;;;;;3.81;78.81;99841.75;4954092;28;20410;-82
2022/01/08 00:03:37;;;;;;;5.57;2.10;;;;;;;3.80;78.93;99846.28;4951969;28;20493;-82
2022/01/08 00:06:03;;;;;;;4.45;2.30;;;;;;;3.83;78.77;99843.16;4953754;28;20445;-82
2022/01/08 00:08:29;;;;;;;4.88;1.85;;;;;;;3.88;78.47;99839.84;4943444;29;20441;-82
2022/01/08 00:10:54;;;;;;;4.65;2.17;;;;;;;3.89;78.87;99833.41;4954014;28;20413;-82
2022/01/08 00:13:21;;;;;;;5.43;1.93;;;;;;;3.89;79.20;99830.75;4954282;28;20406;-82
2022/01/08 00:15:46;;;;;;;3.33;1.92;;;;;;;3.94;78.88;99828.25;4953631;28;20480;-82
2022/01/08 00:18:11;;;;;;;3.90;1.80;;;;;;;3.95;78.74;99819.19;4936848;28;20404;-82
2022/01/08 00:20:37;;;;;;;1.40;1.30;;;;;;;3.98;78.81;99813.38;4953465;28;20817;-82
2022/01/08 00:23:03;;;;;;;2.80;1.10;;;;;;;4.04;78.40;99810.66;4953896;28;20417;-82
2022/01/08 00:25:28;;;;;;;5.07;1.88;;;;;;;4.10;78.69;99811.63;4954001;28;21055;-82
2022/01/08 00:27:54;;;;;;;3.65;1.58;;;;;;;4.03;79.47;99797.44;4937136;29;20410;-82
2022/01/08 00:30:19;;;;;;;3.28;1.58;;;;;;;4.05;79.38;99790.03;4953284;28;20418;-82
2022/01/08 00:32:44;;;;;;;4.17;1.50;;;;;;;4.04;79.31;99797.25;4952849;29;20894;-82
2022/01/08 00:35:11;;;;;;;4.90;1.60;;;;;;;4.04;79.45;99778.47;4960533;28;20912;-81
2022/01/08 00:37:39;;;;;;;2.63;1.00;;;;;;;4.06;79.38;99776.38;4959332;28;20748;-82
2022/01/08 00:40:09;;;;;;;2.92;1.42;;;;;;;4.13;79.30;99773.63;4953878;28;20406;-82
2022/01/08 00:42:35;;;;;;;2.28;1.27;;;;;;;4.14;78.84;99770.75;4958158;28;20414;-82
2022/01/08 00:45:02;;;;;;;3.50;1.35;;;;;;;4.19;78.87;99756.66;4953929;28;20473;-81
2022/01/08 00:47:27;;;;;;;4.07;1.30;;;;;;;4.19;79.46;99756.66;4953598;28;20413;-82
2022/01/08 00:49:52;;;;;;;4.93;1.13;;;;;;;4.19;79.34;99752.13;4936355;28;20410;-81
2022/01/08 00:52:18;;;;;;;3.30;1.60;;;;;;;4.23;79.32;99749.00;4953454;28;20837;-82
2022/01/08 00:54:43;;;;;;;3.00;1.00;;;;;;;4.24;79.27;99745.28;4951286;28;20426;-81
2022/01/08 00:57:08;;;;;;;3.73;1.43;;;;;;;4.28;78.87;99733.09;4952921;28;20416;-82
2022/01/08 00:59:34;;;;;;;7.60;2.07;;;;;;;4.29;79.82;99729.34;4953028;28;20406;-82
2022/01/08 01:01:59;;;;;;;4.43;1.60;;;;;;;4.28;79.83;99719.66;4953594;28;20468;-81
2022/01/08 01:04:25;;;;;;;4.05;1.50;;;;;;;4.26;80.58;99717.19;4953607;28;20418;-82
2022/01/08 01:06:51;;;;;;;3.22;1.23;;;;;;;4.29;79.34;99702.53;4953607;28;20406;-87
2022/01/08 01:09:16;;;;;;;1.93;1.30;;;;;;;4.32;80.32;99694.03;4936547;28;20410;-82
2022/01/08 01:11:41;;;;;;;2.47;1.30;;;;;;;4.22;81.10;99691.84;4936193;29;20422;-85
2022/01/08 01:14:06;;;;;;;2.70;1.30;;;;;;;4.21;81.30;99674.16;4953492;28;20406;-82
2022/01/08 01:16:32;;;;;;;3.40;1.40;;;;;;;4.20;81.06;99669.81;4953676;28;20417;-82
2022/01/08 01:18:59;;;;;;;4.20;1.53;;;;;;;4.17;81.43;99675.63;4953637;28;20464;-82
2022/01/08 01:21:25;;;;;;;4.68;1.45;;;;;;;4.12;81.69;99680.81;4953418;28;20429;-82
2022/01/08 01:23:51;;;;;;;3.60;1.00;;;;;;;4.16;81.15;99682.84;4953658;28;20533;-82
2022/01/08 01:26:21;;;;;;;5.53;1.98;;;;;;;4.21;80.59;99679.50;4960765;28;20959;-82
2022/01/08 01:28:57;;;;;;;4.93;1.25;;;;;;;4.23;81.53;99671.22;4953023;28;20413;-82
2022/01/08 01:47:12;;;;;;;4.13;1.90;;;;;;;4.01;85.30;99650.22;4954940;28;20392;-82
2022/01/08 01:49:40;;;;;;;4.80;1.30;;;;;;;4.02;85.02;99641.13;4956799;28;20625;-82
2022/01/08 01:52:08;;;;;;;5.53;1.95;;;;;;;4.00;85.18;99629.81;4939897;28;20615;-82
2022/01/08 01:54:35;;;;;;;3.90;1.50;;;;;;;4.03;85.37;99633.91;4957302;28;20605;-82
2022/01/08 01:57:04;;;;;;;4.47;1.40;;;;;;;3.95;85.96;99621.59;4956263;28;22268;-82
2022/01/08 01:59:32;;;;;;;2.78;1.70;;;;;;;4.00;86.12;99632.50;4956840;28;20418;-82
2022/01/08 02:01:58;;;;;;;6.40;1.85;;;;;;;3.97;86.50;99622.22;4956429;28;20877;-81
2022/01/08 02:04:24;;;;;;;4.88;1.77;;;;;;;3.98;86.78;99621.19;4956041;28;20414;-82
2022/01/08 02:06:49;;;;;;;6.53;1.73;;;;;;;3.95;86.93;99610.09;4956838;28;20422;-82
2022/01/08 02:09:15;;;;;;;4.22;1.90;;;;;;;3.96;86.72;99617.88;4938811;28;20425;-81
2022/01/08 02:12:04;;;;;;;2.80;1.45;;;;;;;4.01;86.16;99617.22;4954067;28;20429;-85
2022/01/08 02:14:32;;;;;;;4.90;1.65;;;;;;;3.96;86.43;99617.06;4954873;28;20433;-82
2022/01/08 02:16:58;;;;;;;5.22;1.45;;;;;;;3.91;87.15;99617.75;4956185;28;20861;-81
2022/01/08 02:19:24;;;;;;;2.70;1.13;;;;;;;3.88;87.82;99615.53;4955292;28;20413;-81
2022/01/08 02:21:55;;;;;;;5.40;1.40;;;;;;;3.83;88.20;99615.34;4937984;29;20747;-81
2022/01/08 02:24:21;;;;;;;6.30;1.52;;;;;;;3.85;88.53;99599.06;4954998;29;20454;-82
2022/01/08 02:26:47;;;;;;;2.38;1.15;;;;;;;3.77;89.10;99602.00;4954819;29;20414;-83
2022/01/08 02:29:13;;;;;;;8.20;1.50;;;;;;;3.71;89.41;99597.53;4955402;29;20400;-82
2022/01/08 02:31:39;;;;;;;4.75;0.80;;;;;;;3.66;89.61;99608.91;4954366;29;20785;-81
2022/01/08 02:34:05;;;;;;;2.50;0.80;;;;;;;3.60;89.99;99602.59;4951666;29;20980;-81
2022/01/08 02:36:32;;;;;;;2.90;1.35;;;;;;;3.60;90.45;99591.88;4954621;29;20418;-81
2022/01/08 02:38:57;;;;;;;2.55;1.10;;;;;;;3.62;90.86;99589.78;4954588;28;20421;-81
2022/01/08 02:41:22;;;;;;;3.90;1.25;;;;;;;3.66;90.88;99585.63;4954932;28;20410;-82
2022/01/08 02:43:52;;;;;;;1.20;0.90;;;;;;;3.60;90.65;99583.84;4954590;28;20410;-82
2022/01/08 02:46:19;;;;;;;1.10;0.80;;;;;;;3.58;90.27;99577.88;4953268;28;20405;-83
2022/01/08 02:48:44;;;;;;;2.83;0.90;;;;;;;3.55;90.15;99580.19;4956630;28;20406;-81
2022/01/08 02:51:09;;;;;;;2.60;0.90;;;;;;;3.52;89.88;99572.59;4935572;28;20410;-81
2022/01/08 02:53:34;;;;;;;1.23;0.90;;;;;;;3.38;90.81;99573.75;4954642;28;20409;-81
2022/01/08 02:56:00;;;;;;;1.63;0.90;;;;;;;3.41;91.35;99576.81;4945600;28;20431;-81
2022/01/08 02:58:28;;;;;;;2.63;0.90;;;;;;;3.39;91.52;99576.19;4928100;29;20519;-80
2022/01/08 03:00:55;;;;;;;1.15;0.80;;;;;;;3.36;91.92;99573.94;4919285;29;20439;-81
2022/01/08 03:03:20;;;;;;;2.15;0.80;;;;;;;3.42;91.48;99573.09;4942830;29;20777;-81
2022/01/08 03:05:45;;;;;;;2.40;1.43;;;;;;;3.43;91.32;99576.56;4943971;29;20407;-80
2022/01/08 03:08:10;;;;;;;1.10;0.93;;;;;;;3.45;90.86;99571.84;4918584;29;20535;-81
2022/01/08 03:10:36;;;;;;;1.10;1.00;;;;;;;3.48;90.43;99579.44;4935028;29;20879;-81
2022/01/08 03:13:02;;;;;;;1.20;1.10;;;;;;;3.41;90.55;99582.16;4940417;29;20431;-81
2022/01/08 03:15:27;;;;;;;3.15;1.30;;;;;;;3.37;91.16;99585.50;4956296;28;20424;-81
2022/01/08 03:17:53;;;;;;;1.08;1.05;;;;;;;3.41;91.20;99567.94;4937153;29;20925;-81
2022/01/08 03:20:18;;;;;;;0.90;0.90;;;;;;;3.44;91.01;99568.31;4922450;29;20866;-81
2022/01/08 03:22:46;;;;;;;1.97;1.13;;;;;;;3.44;90.85;99584.41;4934665;29;20763;-82
2022/01/08 03:25:13;;;;;;;0.80;0.70;;;;;;;3.40;91.02;99580.50;4935472;29;20507;-81
2022/01/08 03:27:41;;;;;;;1.90;1.00;;;;;;;3.39;91.22;99583.44;4922627;29;20700;-81
2022/01/08 03:30:08;;;;;;;3.47;1.23;;;;;;;3.40;91.85;99583.19;4929005;29;20399;-81
2022/01/08 03:32:34;;;;;;;2.65;1.15;;;;;;;3.42;91.16;99588.34;4935240;29;20426;-81
2022/01/08 03:34:59;;;;;;;4.53;2.90;;;;;;;3.41;91.65;99587.53;4937308;29;20411;-81
2022/01/08 03:37:25;;;;;;;7.88;3.22;;;;;;;3.40;91.67;99603.78;4935286;29;20408;-80
2022/01/08 03:39:50;;;;;;;4.50;2.30;;;;;;;3.40;91.60;99612.66;4935213;29;20506;-82
2022/01/08 03:42:15;;;;;;;3.63;1.50;;;;;;;3.38;91.73;99614.75;4928054;29;20411;-80
2022/01/08 03:44:41;;;;;;;3.67;1.70;;;;;;;3.38;92.21;99624.63;4934976;29;20410;-81
2022/01/08 03:49:50;;;;;;;2.10;1.13;;;;;;;3.23;91.96;99640.22;4936041;29;20403;-81
2022/01/08 03:52:16;;;;;;;2.70;1.70;;;;;;;3.10;92.13;99649.13;4941036;29;20426;-81
2022/01/08 03:54:41;;;;;;;2.83;1.15;;;;;;;2.99;92.60;99647.97;4932884;29;20511;-81
2022/01/08 03:57:07;;;;;;;2.42;1.50;;;;;;;3.07;92.39;99647.72;4953796;29;20402;-81
2022/01/08 03:59:32;;;;;;;6.30;2.90;;;;;;;3.06;92.49;99646.06;4953934;29;20417;-81
2022/01/08 04:01:57;;;;;;;11.13;5.50;;;;;;;3.02;92.49;99658.25;4951488;28;20497;-82
2022/01/08 04:04:23;;;;;;;3.13;2.00;;;;;;;3.00;92.83;99660.31;4948882;28;20445;-81
2022/01/08 04:06:48;;;;;;;3.65;2.60;;;;;;;3.05;91.88;99660.50;4936435;29;20488;-80
2022/01/08 04:09:14;;;;;;;5.90;3.30;;;;;;;2.99;92.26;99669.41;4953626;29;20402;-81
2022/01/08 04:11:40;;;;;;;9.88;3.78;;;;;;;2.96;92.67;99677.03;4939928;29;20417;-81
2022/01/08 04:14:05;;;;;;;11.32;5.47;;;;;;;2.97;92.78;99668.78;4936460;29;20437;-81
2022/01/08 04:16:33;;;;;;;5.00;2.60;;;;;;;2.96;92.69;99671.69;4953303;28;20402;-81
2022/01/08 04:18:59;;;;;;;1.63;1.52;;;;;;;3.01;93.25;99682.53;4946807;29;20441;-81
2022/01/08 04:23:55;;;;;;;3.28;2.00;;;;;;;2.98;92.95;99683.81;4952710;28;20405;-81
2022/01/08 04:26:22;;;;;;;3.20;1.80;;;;;;;3.09;92.97;99684.97;4953518;28;20817;-82
2022/01/08 04:28:48;;;;;;;3.65;2.03;;;;;;;3.04;92.66;99700.84;4953100;29;20420;-81
2022/01/08 04:31:14;;;;;;;4.25;2.30;;;;;;;2.98;93.38;99704.38;4953234;29;20410;-81
2022/01/08 04:33:39;;;;;;;3.40;1.98;;;;;;;2.97;93.62;99714.28;4953509;28;20874;-81
2022/01/08 04:36:05;;;;;;;1.90;1.60;;;;;;;3.14;93.17;99726.13;4937131;29;20414;-81
2022/01/08 04:38:32;;;;;;;2.30;1.47;;;;;;;3.26;92.74;99731.59;4953136;29;20469;-81
2022/01/08 04:40:57;;;;;;;2.75;1.50;;;;;;;3.25;92.93;99743.38;4933407;29;20473;-82
2022/01/08 04:43:23;;;;;;;3.00;1.93;;;;;;;3.24;92.93;99755.09;4952784;28;20898;-81
2022/01/08 04:45:49;;;;;;;1.85;1.40;;;;;;;3.27;92.96;99772.59;4935741;29;20846;-82
2022/01/08 04:48:15;;;;;;;3.53;1.77;;;;;;;3.27;93.29;99776.09;4951877;29;20932;-81
2022/01/08 04:50:40;;;;;;;4.53;1.67;;;;;;;3.31;92.91;99788.03;4952957;28;20441;-82
2022/01/08 04:53:05;;;;;;;2.80;1.27;;;;;;;3.32;92.71;99804.94;4952731;29;20434;-82
2022/01/08 04:55:31;;;;;;;2.10;1.60;;;;;;;3.33;92.55;99825.28;4952594;29;20509;-82
2022/01/08 04:57:56;;;;;;;1.50;1.15;;;;;;;3.37;92.37;99830.03;4952705;29;20512;-82
2022/01/08 05:00:22;;;;;;;1.30;1.20;;;;;;;3.44;92.04;99848.75;4935123;28;20402;-81
2022/01/08 05:02:47;;;;;;;1.40;0.70;;;;;;;3.42;91.92;99869.56;4952729;29;20406;-83
2022/01/08 05:05:12;;;;;;;0.53;0.53;;;;;;;3.43;91.54;99869.34;4953066;29;20409;-81
2022/01/08 05:07:38;;;;;;;0.60;0.60;;;;;;;3.47;90.94;99891.16;4935279;29;20874;-81
2022/01/08 05:10:05;;;;;;;0.60;0.60;;;;;;;3.48;90.56;99898.19;4952809;29;20433;-81
2022/01/08 05:12:31;;;;;;;0.90;0.30;;;;;;;3.40;89.98;99904.59;4952528;28;20428;-83
2022/01/08 05:14:57;;;;;;;0.17;0.17;;;;;;;3.33;90.04;99916.34;4952702;28;20778;-82
2022/01/08 05:17:28;;;;;;;0.20;0.20;;;;;;;3.37;89.40;99923.75;4935542;29;20770;-81
2022/01/08 05:19:54;;;;;;;0.60;0.30;;;;;;;3.37;88.97;99937.16;4952024;29;20414;-81
2022/01/08 05:22:30;;;;;;;0.40;0.40;;;;;;;3.32;89.19;99946.88;4952865;28;20485;-81
2022/01/08 05:24:57;;;;;;;1.30;1.00;;;;;;;3.33;88.86;99961.88;4956145;28;20416;-81
2022/01/08 05:27:23;;;;;;;1.48;0.95;;;;;;;3.37;88.94;99969.28;4956661;28;20440;-82
2022/01/08 05:29:51;;;;;;;0.80;0.80;;;;;;;3.34;88.88;99974.25;4956511;29;20416;-81
2022/01/08 05:32:18;;;;;;;0.95;0.60;;;;;;;3.38;89.28;99981.66;4955969;29;20420;-81
2022/01/08 05:34:50;;;;;;;0.55;0.30;;;;;;;3.33;89.37;99989.47;4956643;28;20484;-82
2022/01/08 05:37:17;;;;;;;0.50;0.30;;;;;;;3.34;89.35;100001.03;4955968;28;20409;-82
2022/01/08 05:39:45;;;;;;;0.30;0.30;;;;;;;3.24;88.92;100014.84;4953879;28;20414;-82
2022/01/08 05:42:10;;;;;;;1.50;0.30;;;;;;;3.25;88.80;100034.41;4955818;28;20405;-81
2022/01/08 05:44:36;;;;;;;0.47;0.20;;;;;;;3.14;88.39;100038.53;4956484;29;20409;-82
2022/01/08 05:47:02;;;;;;;0.90;0.30;;;;;;;3.19;88.38;100041.44;4956121;29;20406;-82
2022/01/08 05:49:27;;;;;;;0.30;0.17;;;;;;;3.18;87.61;100044.31;4955802;29;20920;-81
2022/01/08 05:51:53;;;;;;;0.20;0.10;;;;;;;3.19;87.94;100057.50;4956057;29;20485;-81
2022/01/08 05:54:18;;;;;;;0.73;0.23;;;;;;;3.16;88.00;100062.44;4955661;29;20420;-81
2022/01/08 05:56:43;;;;;;;0.20;0.20;;;;;;;3.22;87.61;100066.97;4955836;29;20412;-81
2022/01/08 05:59:08;;;;;;;0.35;0.20;;;;;;;3.08;87.57;100064.28;4950076;29;20473;-82
2022/01/08 06:01:34;;;;;;;0.90;0.23;;;;;;;3.21;87.15;100084.06;4954691;29;20774;-82
2022/01/08 06:04:01;;;;;;;0.40;0.40;;;;;;;3.16;87.23;100079.34;4956122;29;20402;-81
2022/01/08 06:06:26;;;;;;;0.60;0.60;;;;;;;3.14;87.27;100092.09;4952789;28;20401;-81
2022/01/08 06:08:51;;;;;;;2.13;0.50;;;;;;;3.09;86.78;100102.59;4955348;28;20461;-81
2022/01/08 06:11:17;;;;;;;0.40;0.30;;;;;;;3.12;86.75;100102.19;4954392;28;20410;-81
2022/01/08 06:13:42;;;;;;;0.60;0.30;;;;;;;3.10;86.89;100122.97;4955129;28;20890;-81
2022/01/08 06:16:07;;;;;;;0.70;0.43;;;;;;;3.01;86.59;100127.72;4955768;28;21219;-81
2022/01/08 06:18:33;;;;;;;1.80;1.20;;;;;;;2.93;86.27;100135.91;4955879;28;20893;-81
2022/01/08 06:20:59;;;;;;;0.87;0.40;;;;;;;2.99;85.95;100135.13;4955547;29;20405;-81
2022/01/08 06:23:27;;;;;;;2.85;0.50;;;;;;;3.11;85.54;100141.53;4955653;29;20406;-82
2022/01/08 06:25:53;;;;;;;2.30;0.70;;;;;;;3.19;85.16;100147.72;4955487;29;20476;-82
2022/01/08 06:28:18;;;;;;;1.60;1.07;;;;;;;3.09;85.38;100161.50;4955380;29;20889;-82
2022/01/08 06:30:43;;;;;;;1.80;0.57;;;;;;;3.11;85.31;100165.63;4955563;28;20402;-81
2022/01/08 06:33:08;;;;;;;3.13;2.07;;;;;;;3.08;85.53;100162.53;4955093;29;20428;-81
2022/01/08 06:35:34;;;;;;;1.70;0.60;;;;;;;3.08;85.75;100170.56;4955276;28;20413;-81
2022/01/08 06:37:59;;;;;;;0.40;0.40;;;;;;;2.97;85.58;100165.78;4955401;28;20404;-81
2022/01/08 06:40:24;;;;;;;2.80;1.60;;;;;;;2.96;85.81;100169.50;4954524;29;20414;-81
2022/01/08 06:42:50;;;;;;;0.57;0.57;;;;;;;3.01;85.58;100169.72;4936509;29;20468;-82
2022/01/08 06:45:15;;;;;;;0.80;0.70;;;;;;;3.00;85.08;100174.22;4954368;28;20426;-82
2022/01/08 06:47:42;;;;;;;1.70;0.70;;;;;;;3.01;84.98;100178.56;4935045;28;20419;-82
2022/01/08 06:50:07;;;;;;;0.80;0.68;;;;;;;3.03;85.07;100183.75;4953649;28;20802;-80
2022/01/08 06:52:33;;;;;;;1.38;1.10;;;;;;;2.99;84.98;100187.84;4949901;28;20422;-81
2022/01/08 06:54:59;;;;;;;1.63;0.73;;;;;;;3.05;85.03;100200.41;4954381;28;20430;-82
2022/01/08 06:57:24;;;;;;;4.53;2.33;;;;;;;3.07;85.10;100204.53;4954703;28;20414;-81
2022/01/08 06:59:49;;;;;;;1.95;1.60;;;;;;;3.07;84.38;100209.88;4937592;29;20413;-81
2022/01/08 07:02:14;;;;;;;1.77;1.30;;;;;;;3.04;85.04;100220.16;4954434;28;20872;-81
2022/01/08 07:04:40;;;;;;;1.47;1.10;;;;;;;3.00;85.39;100225.09;4955020;29;20985;-81
2022/01/08 07:07:05;;;;;;;1.35;0.70;;;;;;;3.08;85.38;100227.59;4937748;29;20405;-80
2022/01/08 07:09:30;;;;;;;1.70;0.60;;;;;;;2.96;85.31;100231.91;4952770;28;20414;-82
2022/01/08 07:11:56;;;;;;;2.10;0.70;;;;;;;2.92;85.85;100249.38;4954788;28;20465;-82
2022/01/08 07:14:21;;;;;;;1.03;0.50;;;;;;;2.96;85.66;100241.78;4954686;28;20789;-82
2022/01/08 07:16:48;;;;;;;2.00;0.73;;;;;;;3.05;85.83;100245.91;4953296;28;20450;-81
2022/01/08 07:19:13;;;;;;;1.77;0.80;;;;;;;3.02;85.35;100255.19;4954614;29;20413;-82
2022/01/08 07:21:38;;;;;;;2.90;1.30;;;;;;;3.03;85.45;100256.81;4947958;28;20427;-81
2022/01/08 07:24:04;;;;;;;1.55;0.80;;;;;;;2.96;85.69;100274.72;4954402;28;20429;-81
2022/01/08 07:26:29;;;;;;;1.33;0.77;;;;;;;2.92;85.77;100278.00;4937064;29;20406;-81
2022/01/08 07:28:54;;;;;;;1.97;0.97;;;;;;;3.00;85.46;100284.00;4936732;29;20421;-81
2022/01/08 07:31:22;;;;;;;3.00;2.07;;;;;;;2.99;85.58;100290.38;4953335;29;20906;-81
2022/01/08 07:33:49;;;;;;;2.80;1.20;;;;;;;2.93;85.55;100298.38;4951855;29;20409;-84
2022/01/08 07:36:19;;;;;;;1.80;1.00;;;;;;;2.98;85.18;100309.31;4954192;28;20893;-84
2022/01/08 07:38:44;;;;;;;4.28;1.52;;;;;;;2.98;85.02;100317.34;4953734;29;20471;-81
2022/01/08 07:41:10;;;;;;;3.60;1.47;;;;;;;2.88;85.09;100316.88;4953698;29;20398;-82
2022/01/08 07:43:38;;;;;;;1.80;1.10;;;;;;;2.85;84.97;100323.47;4936819;29;20409;-82
2022/01/08 07:46:03;;;;;;;2.45;1.38;;;;;;;2.87;84.67;100325.94;4950915;28;20410;-80
2022/01/08 07:48:29;;;;;;;3.50;2.00;;;;;;;3.01;84.26;100327.66;4953342;29;20459;-81
2022/01/08 07:50:54;;;;;;;6.20;1.50;;;;;;;2.97;83.69;100332.56;4953855;29;20794;-82
2022/01/08 07:53:19;;;;;;;2.20;1.53;;;;;;;2.92;83.95;100340.38;4952728;29;20525;-81
2022/01/08 07:55:45;;;;;;;5.83;2.63;;;;;;;2.84;84.25;100340.53;4944420;28;20427;-85
2022/01/08 07:58:10;;;;;;;5.23;2.27;;;;;;;2.86;84.27;100343.88;4941613;29;20493;-84
2022/01/08 08:00:36;;;;;;;3.33;1.93;;;;;;;2.89;84.03;100351.50;4933412;29;20412;-82
2022/01/08 08:03:01;;;;;;;4.37;2.00;;;;;;;2.93;84.22;100347.38;4929996;29;20419;-82
2022/01/08 08:05:27;;;;;;;6.47;2.10;;;;;;;3.02;83.72;100342.69;4934020;29;20424;-83
2022/01/08 08:07:52;;;;;;;2.30;2.10;;;;;;;2.95;83.69;100349.88;4928905;29;20490;-81
2022/01/08 08:10:17;;;;;;;3.33;2.40;;;;;;;2.92;83.74;100359.13;4928995;29;20419;-81
2022/01/08 08:12:43;;;;;;;5.57;2.93;;;;;;;2.98;83.26;100362.84;4931088;29;20431;-80
2022/01/08 08:15:11;;;;;;;5.93;3.03;;;;;;;3.00;83.12;100377.69;4931701;29;20530;-81
2022/01/08 08:17:37;;;;;;;7.55;3.10;;;;;;;2.97;83.20;100367.38;4926285;29;20424;-82
2022/01/08 08:20:04;;;;;;;7.50;2.83;;;;;;;2.94;83.23;100374.97;4926533;29;20415;-80
2022/01/08 08:22:29;;;;;;;3.60;2.00;;;;;;;2.94;82.83;100369.63;4925368;29;20412;-82
2022/01/08 08:24:55;;;;;;;6.72;3.35;;;;;;;2.93;82.64;100381.38;4930681;29;20422;-82
2022/01/08 08:27:20;;;;;;;5.57;3.30;;;;;;;3.02;82.10;100388.22;4929920;29;20854;-81
2022/01/08 08:29:45;;;;;;;6.03;2.80;;;;;;;2.97;82.21;100395.97;4931928;29;20411;-80
2022/01/08 08:32:11;;;;;;;7.13;3.33;;;;;;;2.95;81.97;100404.22;4914780;29;20419;-80
2022/01/08 08:34:38;;;;;;;5.30;2.53;;;;;;;3.06;81.85;100402.84;4926273;29;20419;-81
2022/01/08 08:37:04;;;;;;;6.05;2.95;;;;;;;3.18;81.79;100405.78;4927405;29;20467;-81
2022/01/08 08:39:30;;;;;;;4.85;2.63;;;;;;;3.25;80.99;100406.66;4925228;29;20919;-80
2022/01/08 08:41:55;;;;;;;9.93;4.47;;;;;;;3.23;81.16;100411.41;4920955;29;20482;-80
2022/01/08 08:44:20;;;;;;;6.53;2.87;;;;;;;3.21;81.54;100414.25;4930703;29;20776;-81
2022/01/08 08:46:46;;;;;;;5.57;2.30;;;;;;;3.21;81.43;100416.94;4930974;29;20474;-80
2022/01/08 08:49:11;;;;;;;5.27;2.10;;;;;;;3.25;81.27;100412.84;4926390;29;20422;-80
2022/01/08 08:51:36;;;;;;;6.03;2.60;;;;;;;3.33;80.59;100417.19;4913690;29;20423;-80
2022/01/08 08:54:02;;;;;;;9.37;4.20;;;;;;;3.30;81.14;100423.78;4907477;29;20439;-80
2022/01/08 08:56:29;;;;;;;9.97;5.37;;;;;;;3.28;81.18;100423.16;4935628;28;20513;-85
2022/01/08 08:58:54;;;;;;;8.25;4.55;;;;;;;3.15;81.43;100420.41;4945396;28;20417;-80
2022/01/08 09:01:20;;;;;;;11.93;4.20;;;;;;;3.23;81.18;100430.94;4945096;28;20417;-83
2022/01/08 09:03:45;;;;;;;9.37;3.30;;;;;;;3.35;80.33;100437.41;4943862;28;20463;-82
2022/01/08 09:06:10;;;;;;;6.60;3.07;;;;;;;3.35;80.31;100431.22;4943324;28;20512;-80
2022/01/08 09:08:35;;;;;;;8.50;3.23;;;;;;;3.44;80.61;100430.03;4946933;28;20494;-82
2022/01/08 09:11:01;;;;;;;6.60;2.73;;;;;;;3.36;81.25;100436.38;4941276;28;20901;-82
2022/01/08 09:13:28;;;;;;;7.43;2.80;;;;;;;3.39;80.86;100432.50;4946594;28;20528;-82
2022/01/08 09:15:53;;;;;;;8.13;2.75;;;;;;;3.45;80.16;100437.03;4940503;28;20547;-84
2022/01/08 09:18:21;;;;;;;7.72;1.92;;;;;;;3.48;80.32;100442.84;4922679;29;20449;-82
2022/01/08 09:20:49;;;;;;;8.93;2.50;;;;;;;3.70;79.52;100440.00;4940921;28;20569;-80
2022/01/08 09:23:14;;;;;;;7.43;2.77;;;;;;;3.72;79.56;100451.38;4937993;28;20416;-79
2022/01/08 09:25:40;;;;;;;5.70;3.07;;;;;;;3.60;80.00;100451.94;4941352;28;21125;-80
2022/01/08 09:28:05;;;;;;;7.97;3.40;;;;;;;3.60;79.76;100459.97;4941661;28;20415;-80
2022/01/08 09:30:31;;;;;;;6.80;2.93;;;;;;;3.75;78.68;100448.28;4940059;28;20565;-80
2022/01/08 09:32:56;;;;;;;7.15;2.90;;;;;;;3.89;77.65;100447.28;4924530;28;20581;-80
2022/01/08 09:35:25;;;;;;;4.70;2.33;;;;;;;3.95;78.16;100441.94;4940939;28;20735;-80
2022/01/08 09:37:51;;;;;;;4.50;2.38;;;;;;;3.71;78.50;100439.00;4939263;28;20460;-80
2022/01/08 09:40:18;;;;;;;2.97;1.90;;;;;;;3.83;78.09;100437.38;4940620;28;20477;-80
2022/01/08 09:42:44;;;;;;;7.05;2.58;;;;;;;3.89;77.20;100447.28;4940058;28;20482;-80
2022/01/08 09:45:11;;;;;;;6.90;2.65;;;;;;;3.98;77.59;100444.25;4940941;28;20510;-80
2022/01/08 09:47:36;;;;;;;8.13;4.80;;;;;;;3.89;78.11;100442.75;4924764;28;20494;-80
2022/01/08 09:50:03;;;;;;;10.35;2.78;;;;;;;3.78;77.77;100440.69;4941634;28;20440;-80
2022/01/08 09:52:32;;;;;;;7.88;2.90;;;;;;;3.84;77.90;100439.88;4940539;28;20482;-80
2022/01/08 09:54:58;;;;;;;6.18;2.85;;;;;;;3.94;77.76;100443.00;4938835;28;20774;-80
2022/01/08 09:57:23;;;;;;;7.60;3.30;;;;;;;4.08;77.72;100422.41;4948650;28;20694;-80
2022/01/08 09:59:52;;;;;;;6.80;1.90;;;;;;;4.12;77.71;100421.78;4941607;28;20468;-80
2022/01/08 10:02:25;;;;;;;7.00;2.60;;;;;;;4.35;76.95;100420.56;4952334;29;20493;-80
2022/01/08 10:05:11;;;;;;;7.75;3.70;;;;;;;4.57;75.91;100403.25;4952565;29;20397;-80
2022/01/08 10:07:37;;;;;;;7.65;3.70;;;;;;;4.74;75.35;100414.38;4952751;29;20494;-80
2022/01/08 10:10:02;;;;;;;6.38;3.00;;;;;;;4.68;75.18;100414.16;4930193;28;20635;-80
2022/01/08 10:12:48;;;;;;;7.03;2.92;;;;;;;4.45;76.75;100404.88;4944644;28;20893;-80
2022/01/08 10:18:07;;;;;;;8.30;3.58;;;;;;;4.71;75.42;100404.88;4941292;28;20464;-81
2022/01/08 10:20:38;;;;;;;4.43;2.27;;;;;;;4.83;74.23;100400.53;4944504;28;20413;-81
2022/01/08 10:23:15;;;;;;;9.35;3.17;;;;;;;4.73;74.61;100402.81;4952344;28;20418;-81
2022/01/08 10:26:02;;;;;;;7.13;2.85;;;;;;;4.89;73.68;100396.19;4950021;28;20412;-80
2022/01/08 10:28:49;;;;;;;7.82;3.83;;;;;;;4.89;73.71;100396.19;4946375;28;20493;-80
2022/01/08 10:31:17;;;;;;;8.98;3.53;;;;;;;4.72;74.97;100391.25;4951619;28;20414;-81
2022/01/08 10:33:54;;;;;;;7.03;3.30;;;;;;;4.78;74.98;100397.63;4946841;28;20422;-80
2022/01/08 10:36:29;;;;;;;5.70;2.50;;;;;;;4.81;73.62;100389.16;4943683;28;20420;-80
2022/01/08 10:38:56;;;;;;;5.53;2.90;;;;;;;4.56;74.60;100393.53;4943879;28;20453;-81
2022/01/08 10:41:23;;;;;;;6.07;3.30;;;;;;;4.63;74.32;100397.88;4942157;28;20429;-79
2022/01/08 10:44:04;;;;;;;8.50;3.15;;;;;;;4.56;74.47;100397.03;4952534;28;20432;-80
2022/01/08 10:46:30;;;;;;;4.82;3.33;;;;;;;4.63;75.50;100378.25;4947915;28;20418;-79
2022/01/08 10:48:55;;;;;;;7.77;2.53;;;;;;;4.64;74.47;100383.41;4948693;28;20498;-78
2022/01/08 10:51:24;;;;;;;5.30;2.60;;;;;;;4.62;74.71;100376.59;4949292;28;20446;-80
2022/01/08 10:54:06;;;;;;;10.88;2.88;;;;;;;4.66;75.40;100378.66;4947971;28;20414;-80
2022/01/08 10:56:36;;;;;;;6.25;3.08;;;;;;;4.52;75.67;100377.03;4942658;28;20524;-80
2022/01/08 10:59:03;;;;;;;5.30;3.40;;;;;;;4.58;75.69;100375.34;4946675;28;20422;-80
2022/01/08 11:01:42;;;;;;;9.32;5.22;;;;;;;4.71;74.65;100375.34;4942049;28;20421;-81
2022/01/08 11:04:09;;;;;;;13.27;6.07;;;;;;;4.55;74.89;100371.22;4939724;28;20417;-78
2022/01/08 11:06:53;;;;;;;6.78;3.10;;;;;;;4.51;75.10;100370.00;4950968;28;21089;-78
2022/01/08 11:09:19;;;;;;;6.97;2.40;;;;;;;4.45;75.01;100365.47;4948906;28;20773;-79
2022/01/08 11:11:44;;;;;;;8.33;3.23;;;;;;;4.30;74.75;100370.22;4935302;28;20422;-79
2022/01/08 11:14:22;;;;;;;7.90;2.20;;;;;;;4.26;73.45;100357.41;4951066;28;20406;-79
2022/01/08 11:16:51;;;;;;;6.07;2.17;;;;;;;4.26;73.86;100354.72;4953089;28;21028;-79
2022/01/08 11:19:18;;;;;;;7.22;2.15;;;;;;;4.13;74.44;100359.06;4943412;28;20418;-81
2022/01/08 11:21:48;;;;;;;4.53;2.00;;;;;;;4.26;74.25;100360.09;4943238;28;20893;-79
2022/01/08 11:24:17;;;;;;;6.50;2.92;;;;;;;4.34;74.07;100355.38;4952794;28;20484;-82
2022/01/08 11:26:44;;;;;;;4.80;1.73;;;;;;;4.36;73.84;100347.94;4948909;28;20421;-80
2022/01/08 11:29:10;;;;;;;2.90;1.98;;;;;;;4.42;74.26;100336.38;4942499;28;20998;-80
2022/01/08 11:31:36;;;;;;;5.13;2.65;;;;;;;4.50;74.77;100332.66;4948766;28;20432;-81
2022/01/08 11:34:08;;;;;;;5.85;2.28;;;;;;;4.70;73.50;100326.22;4944608;28;20410;-83
2022/01/08 11:36:34;;;;;;;8.68;2.75;;;;;;;4.95;73.40;100333.56;4945113;28;20701;-81
2022/01/08 11:39:00;;;;;;;3.47;2.33;;;;;;;4.90;74.57;100319.97;4946996;28;20419;-80
2022/01/08 11:41:28;;;;;;;5.03;2.97;;;;;;;5.22;72.83;100321.69;4946501;28;20425;-80
2022/01/08 11:43:55;;;;;;;5.40;2.57;;;;;;;5.07;73.72;100316.59;4941632;28;20475;-81
2022/01/08 11:46:23;;;;;;;3.38;2.28;;;;;;;5.17;73.71;100303.53;4954905;29;20398;-81
2022/01/08 11:48:51;;;;;;;2.53;2.27;;;;;;;5.21;73.45;100290.50;4937962;28;20422;-80
2022/01/08 11:51:27;;;;;;;7.53;2.70;;;;;;;5.11;73.12;100290.94;4945238;28;20433;-80
2022/01/08 11:53:59;;;;;;;4.47;2.55;;;;;;;5.03;73.60;100282.31;4943164;28;20422;-80
2022/01/08 11:56:29;;;;;;;4.15;2.80;;;;;;;5.05;73.51;100277.56;4935986;29;20422;-79
2022/01/08 11:59:03;;;;;;;4.55;2.40;;;;;;;5.01;73.58;100274.47;4957029;28;20473;-80